Time;durP1;ratioP1;P1;durP2;ratioP2;P2;SDS_P1;SDS_P2;PMS_P1;PMS_P2;Temp;Humidity;BMP_temperature;BMP_pressure;BME280_temperature;BME280_humidity;BME280_pressure;Samples;Min_cycle;Max_cycle;Signal;HPM_P1;HPM_P2
2022/07/11 00:00:08;;;;;;;5.07;1.40;;;17.00;86.40;;;;;;4988497;28;20315;-77
2022/07/11 00:02:34;;;;;;;2.58;1.15;;;16.90;86.70;;;;;;5004532;28;20026;-77
2022/07/11 00:05:01;;;;;;;1.88;1.00;;;16.90;87.30;;;;;;4980948;28;20022;-76
2022/07/11 00:07:27;;;;;;;1.75;0.80;;;16.90;87.40;;;;;;5001222;28;20069;-76
2022/07/11 00:09:53;;;;;;;2.73;0.83;;;16.90;87.70;;;;;;5001092;28;20022;-76
2022/07/11 00:12:21;;;;;;;1.23;0.90;;;16.90;87.50;;;;;;5004809;28;20033;-76
2022/07/11 00:14:48;;;;;;;2.95;0.85;;;16.90;87.90;;;;;;5004947;28;20069;-76
2022/07/11 00:17:13;;;;;;;1.38;1.00;;;16.90;88.30;;;;;;4988930;28;20057;-76
2022/07/11 00:19:39;;;;;;;0.90;0.73;;;16.90;88.90;;;;;;5004870;28;20034;-76
2022/07/11 00:22:05;;;;;;;2.00;0.70;;;16.90;88.20;;;;;;5005219;28;20030;-77
2022/07/11 00:24:31;;;;;;;3.60;1.27;;;16.80;88.40;;;;;;5004761;28;20049;-76
2022/07/11 00:26:57;;;;;;;2.00;0.83;;;16.80;89.90;;;;;;4988766;28;20057;-76
2022/07/11 00:29:22;;;;;;;1.80;1.17;;;16.80;90.30;;;;;;5005133;28;20026;-76
2022/07/11 00:31:48;;;;;;;3.20;0.80;;;16.80;90.50;;;;;;5005092;28;20032;-76
2022/07/11 00:34:15;;;;;;;1.83;0.93;;;16.70;90.50;;;;;;5005922;28;20026;-77
2022/07/11 00:36:41;;;;;;;;;;;16.70;90.50;;;;;;5014634;28;20049;-76
2022/07/11 00:39:06;;;;;;;2.05;0.93;;;16.70;90.40;;;;;;5024502;28;19921;-76
2022/07/11 00:41:32;;;;;;;2.27;0.83;;;16.70;90.70;;;;;;5008210;28;20097;-76
2022/07/11 00:43:59;;;;;;;6.70;1.30;;;16.70;90.60;;;;;;5007871;28;20021;-77
2022/07/11 00:46:26;;;;;;;7.90;1.33;;;16.60;90.70;;;;;;5008266;28;20018;-76
2022/07/11 00:48:52;;;;;;;;;;;16.60;90.70;;;;;;5008469;28;20034;-76
2022/07/11 00:51:21;;;;;;;1.13;0.70;;;16.50;91.00;;;;;;5008167;28;19905;-76
2022/07/11 00:53:53;;;;;;;3.13;1.02;;;16.50;91.60;;;;;;5007589;28;20024;-76
2022/07/11 00:56:24;;;;;;;2.28;0.75;;;16.50;91.90;;;;;;5007987;28;20022;-76
2022/07/11 00:58:50;;;;;;;2.40;0.90;;;16.50;92.10;;;;;;5012607;28;20040;-76
2022/07/11 01:01:16;;;;;;;2.10;0.95;;;16.50;92.40;;;;;;4994833;28;20018;-77
2022/07/11 01:03:42;;;;;;;2.42;0.63;;;16.40;92.00;;;;;;5036138;28;20059;-76
2022/07/11 01:06:08;;;;;;;1.53;0.80;;;16.40;92.50;;;;;;5012952;28;20053;-77
2022/07/11 01:08:35;;;;;;;2.35;0.77;;;16.40;92.60;;;;;;5004646;28;20022;-76
2022/07/11 01:11:08;;;;;;;1.92;1.10;;;16.40;92.70;;;;;;5007874;28;20384;-76
2022/07/11 01:13:34;;;;;;;2.75;0.90;;;16.40;92.70;;;;;;5008066;28;20383;-76
2022/07/11 01:16:30;;;;;;;0.90;0.77;;;16.40;93.00;;;;;;5015523;28;20025;-76
2022/07/11 01:18:56;;;;;;;1.45;0.90;;;16.40;93.10;;;;;;5000077;28;20037;-76
2022/07/11 01:21:35;;;;;;;2.33;0.90;;;16.40;92.90;;;;;;5003396;28;20035;-76
2022/07/11 01:24:02;;;;;;;1.05;0.80;;;16.40;93.00;;;;;;5003854;28;20022;-75
2022/07/11 01:26:28;;;;;;;2.78;0.73;;;16.40;93.40;;;;;;5004090;28;20229;-75
2022/07/11 01:28:57;;;;;;;1.63;0.90;;;16.40;93.40;;;;;;5004077;28;20148;-76
2022/07/11 01:31:22;;;;;;;1.73;0.80;;;16.40;93.70;;;;;;5004040;28;20068;-76
2022/07/11 01:33:49;;;;;;;1.50;0.87;;;16.40;93.80;;;;;;5003803;28;20333;-75
2022/07/11 01:36:15;;;;;;;;;;;16.40;94.10;;;;;;5019566;28;20041;-75
2022/07/11 01:38:41;;;;;;;1.38;0.80;;;16.40;94.20;;;;;;5028040;23;20116;-75
2022/07/11 01:41:07;;;;;;;1.67;0.77;;;16.40;93.90;;;;;;5002775;28;20033;-75
2022/07/11 01:43:33;;;;;;;1.90;0.90;;;16.30;93.90;;;;;;5003042;28;20046;-75
2022/07/11 01:45:59;;;;;;;1.73;0.75;;;16.30;93.80;;;;;;5004947;28;20265;-75
2022/07/11 01:48:25;;;;;;;4.47;0.93;;;16.30;94.40;;;;;;5004832;28;20014;-75
2022/07/11 01:50:50;;;;;;;1.57;0.80;;;16.30;94.30;;;;;;5004826;28;20014;-75
2022/07/11 01:53:16;;;;;;;1.03;0.80;;;16.30;94.70;;;;;;5004448;28;20050;-75
2022/07/11 01:55:42;;;;;;;2.33;0.97;;;16.30;94.90;;;;;;5003555;28;20030;-75
2022/07/11 01:58:08;;;;;;;1.93;1.00;;;16.30;95.00;;;;;;5003098;28;20029;-75
2022/07/11 02:00:34;;;;;;;1.83;0.90;;;16.20;94.80;;;;;;5004783;28;20117;-75
2022/07/11 02:03:00;;;;;;;1.90;1.10;;;16.30;95.00;;;;;;5003266;28;20027;-75
2022/07/11 02:05:26;;;;;;;3.57;0.80;;;16.30;94.80;;;;;;5004674;28;20026;-75
2022/07/11 02:10:35;;;;;;;1.83;0.90;;;16.30;95.50;;;;;;5004486;28;20281;-75
2022/07/11 02:13:01;;;;;;;3.30;1.20;;;16.20;95.50;;;;;;5003163;28;20030;-75
2022/07/11 02:15:28;;;;;;;1.07;0.90;;;16.20;95.40;;;;;;5004411;28;20038;-75
2022/07/11 02:17:54;;;;;;;2.95;1.42;;;16.30;95.40;;;;;;4987258;28;20026;-75
2022/07/11 02:20:20;;;;;;;3.70;1.43;;;16.30;95.60;;;;;;5003394;28;20038;-75
2022/07/11 02:22:46;;;;;;;3.25;1.33;;;16.30;95.30;;;;;;4986541;28;20034;-75
2022/07/11 02:25:12;;;;;;;1.53;1.20;;;16.20;95.50;;;;;;5003132;28;20061;-75
2022/07/11 02:27:38;;;;;;;1.20;0.80;;;16.30;95.80;;;;;;5003065;28;20041;-74
2022/07/11 02:30:04;;;;;;;5.77;1.00;;;16.30;95.90;;;;;;5004210;28;20026;-75
2022/07/11 02:32:30;;;;;;;3.38;0.95;;;16.40;95.70;;;;;;4970827;28;20030;-76
2022/07/11 02:34:56;;;;;;;2.30;1.10;;;16.30;95.80;;;;;;5003063;28;20030;-75
2022/07/11 02:37:22;;;;;;;2.07;1.07;;;16.30;95.70;;;;;;5003688;28;20041;-75
2022/07/11 02:39:48;;;;;;;2.77;1.00;;;16.40;95.80;;;;;;5002302;28;20101;-75
2022/07/11 02:42:13;;;;;;;4.33;1.00;;;16.40;95.80;;;;;;4982669;28;20048;-75
2022/07/11 02:44:39;;;;;;;2.30;1.30;;;16.40;96.00;;;;;;5002533;28;20014;-75
2022/07/11 02:47:05;;;;;;;3.07;1.30;;;16.40;96.10;;;;;;5003758;28;20340;-75
2022/07/11 02:49:32;;;;;;;1.60;0.80;;;16.40;96.00;;;;;;5002891;28;20022;-75
2022/07/11 02:51:58;;;;;;;2.60;1.33;;;16.40;96.10;;;;;;5002759;28;20026;-75
2022/07/11 02:54:24;;;;;;;3.28;0.93;;;16.40;96.50;;;;;;4985925;28;20026;-74
2022/07/11 02:56:49;;;;;;;2.13;1.10;;;16.40;96.70;;;;;;5003582;28;20045;-74
2022/07/11 02:59:15;;;;;;;2.27;1.03;;;16.40;96.90;;;;;;5003602;28;20022;-75
2022/07/11 03:01:41;;;;;;;3.57;1.00;;;16.40;97.20;;;;;;5002495;28;20261;-75
2022/07/11 03:04:08;;;;;;;3.10;1.03;;;16.40;97.30;;;;;;5002186;28;20236;-75
2022/07/11 03:06:34;;;;;;;2.08;1.05;;;16.30;97.60;;;;;;5003557;28;20090;-75
2022/07/11 03:09:00;;;;;;;3.93;1.50;;;16.40;97.70;;;;;;5001996;28;20026;-76
2022/07/11 03:11:26;;;;;;;1.10;0.77;;;16.40;97.70;;;;;;5003372;28;20100;-75
2022/07/11 03:13:52;;;;;;;3.40;1.20;;;16.40;97.80;;;;;;5003174;28;20026;-76
2022/07/11 03:16:17;;;;;;;4.27;1.10;;;16.40;97.70;;;;;;5003343;28;20035;-76
2022/07/11 03:18:43;;;;;;;6.13;2.23;;;16.40;98.00;;;;;;5003189;28;20026;-75
2022/07/11 03:21:09;;;;;;;2.53;1.03;;;16.40;98.40;;;;;;5003399;28;20034;-75
2022/07/11 03:23:35;;;;;;;2.13;0.93;;;16.40;98.50;;;;;;4985346;28;20019;-75
2022/07/11 03:26:01;;;;;;;3.07;1.17;;;16.40;98.50;;;;;;5003148;28;20033;-75
2022/07/11 03:28:26;;;;;;;2.20;1.07;;;16.40;98.70;;;;;;5002038;28;20022;-75
2022/07/11 03:30:52;;;;;;;1.17;1.07;;;16.40;98.60;;;;;;4985790;28;20268;-76
2022/07/11 03:33:18;;;;;;;1.50;1.40;;;16.40;98.80;;;;;;5001767;28;20030;-76
2022/07/11 03:35:44;;;;;;;2.07;1.23;;;16.40;98.80;;;;;;5001718;28;20046;-75
2022/07/11 03:38:10;;;;;;;3.37;1.27;;;16.40;98.90;;;;;;5002559;28;20232;-75
2022/07/11 03:40:36;;;;;;;3.35;1.40;;;16.30;98.80;;;;;;4969932;28;20049;-75
2022/07/11 03:43:02;;;;;;;2.70;1.30;;;16.30;98.90;;;;;;5002803;28;20042;-76
2022/07/11 03:45:28;;;;;;;3.60;1.67;;;16.30;99.10;;;;;;5002851;28;20026;-75
2022/07/11 03:47:54;;;;;;;3.30;1.47;;;16.30;99.10;;;;;;5003057;28;20057;-75
2022/07/11 03:50:20;;;;;;;2.03;1.20;;;16.30;99.10;;;;;;5003069;28;20026;-75
2022/07/11 03:52:45;;;;;;;3.30;1.30;;;16.30;99.20;;;;;;5001506;28;20265;-75
2022/07/11 03:55:11;;;;;;;4.67;1.30;;;16.30;99.30;;;;;;5002944;28;20050;-75
2022/07/11 03:57:37;;;;;;;2.33;1.30;;;16.30;99.50;;;;;;5002032;28;20081;-76
2022/07/11 04:00:05;;;;;;;1.45;1.02;;;16.20;99.40;;;;;;5002994;28;20583;-75
2022/07/11 04:02:31;;;;;;;2.20;1.30;;;16.20;99.70;;;;;;4986602;28;20145;-75
2022/07/11 04:04:57;;;;;;;2.33;1.17;;;16.20;99.90;;;;;;5003396;28;20026;-75
2022/07/11 04:07:23;;;;;;;1.90;1.27;;;16.20;99.90;;;;;;5004217;28;20037;-76
2022/07/11 04:09:49;;;;;;;2.10;1.40;;;16.20;99.90;;;;;;5006760;28;20022;-74
2022/07/11 04:12:14;;;;;;;3.03;1.40;;;16.20;99.90;;;;;;5007835;28;20328;-74
2022/07/11 04:14:40;;;;;;;4.87;1.63;;;16.10;99.90;;;;;;5007242;28;20238;-74
2022/07/11 04:17:06;;;;;;;3.10;1.00;;;16.10;99.90;;;;;;4990289;28;20026;-74
2022/07/11 04:19:32;;;;;;;4.00;1.33;;;16.10;99.90;;;;;;5003091;28;20034;-74
2022/07/11 04:21:58;;;;;;;1.53;1.00;;;16.00;99.90;;;;;;5002755;28;20045;-75
2022/07/11 04:24:24;;;;;;;2.22;1.30;;;15.90;99.90;;;;;;5002332;28;20225;-75
2022/07/11 04:26:49;;;;;;;2.93;1.47;;;15.90;99.90;;;;;;5001914;28;20034;-76
2022/07/11 04:29:15;;;;;;;1.93;1.20;;;15.80;99.90;;;;;;5003034;28;20022;-76
2022/07/11 04:31:41;;;;;;;4.73;1.60;;;15.80;99.90;;;;;;5001642;28;20022;-75
2022/07/11 04:34:07;;;;;;;2.30;1.20;;;15.80;99.90;;;;;;4998042;28;20370;-75
2022/07/11 04:36:32;;;;;;;3.13;1.43;;;15.80;99.90;;;;;;5002597;28;20030;-75
2022/07/11 04:38:58;;;;;;;2.43;1.50;;;15.80;99.90;;;;;;5001043;28;20022;-75
2022/07/11 04:41:24;;;;;;;2.33;1.27;;;15.90;99.90;;;;;;5002307;28;20252;-74
2022/07/11 04:43:50;;;;;;;2.40;1.37;;;16.00;99.90;;;;;;5002016;28;20326;-75
2022/07/11 04:46:16;;;;;;;2.30;1.40;;;16.00;99.90;;;;;;5001231;28;20018;-75
2022/07/11 04:48:41;;;;;;;1.57;1.30;;;16.00;99.90;;;;;;5001152;28;20313;-75
2022/07/11 04:51:07;;;;;;;3.80;1.57;;;16.10;99.90;;;;;;5000774;28;20329;-76
2022/07/11 04:53:33;;;;;;;5.07;1.40;;;16.10;99.90;;;;;;5001393;28;20041;-75
2022/07/11 04:55:59;;;;;;;5.45;1.98;;;16.10;99.90;;;;;;5001152;28;20029;-74
2022/07/11 04:58:25;;;;;;;2.70;1.53;;;16.10;99.90;;;;;;5005452;28;20213;-75
2022/07/11 05:00:51;;;;;;;1.67;1.37;;;16.10;99.90;;;;;;5004790;28;20060;-74
2022/07/11 05:03:18;;;;;;;1.80;1.57;;;16.10;99.90;;;;;;5005475;28;20285;-75
2022/07/11 05:05:44;;;;;;;5.38;1.50;;;16.10;99.90;;;;;;5004968;28;20325;-75
2022/07/11 05:08:10;;;;;;;3.10;1.60;;;16.10;99.90;;;;;;5004130;28;20025;-75
2022/07/11 05:10:36;;;;;;;3.10;1.50;;;16.20;99.90;;;;;;4999513;28;20073;-74
2022/07/11 05:13:03;;;;;;;6.67;1.77;;;16.20;99.90;;;;;;4999613;28;20437;-75
2022/07/11 05:15:28;;;;;;;;;;;16.20;99.90;;;;;;4998118;28;20033;-76
2022/07/11 05:17:54;;;;;;;4.18;1.90;;;16.20;99.90;;;;;;5005257;28;19906;-75
2022/07/11 05:20:20;;;;;;;1.80;1.40;;;16.20;99.90;;;;;;5002867;28;20436;-74
2022/07/11 05:22:46;;;;;;;2.73;1.97;;;16.30;99.90;;;;;;5003088;28;20261;-74
2022/07/11 05:25:12;;;;;;;4.05;2.03;;;16.30;99.90;;;;;;5005386;28;20413;-72
2022/07/11 05:27:38;;;;;;;4.70;1.57;;;16.30;99.90;;;;;;5004067;28;20039;-72
2022/07/11 05:30:04;;;;;;;3.97;1.60;;;16.30;99.90;;;;;;5004186;28;20033;-72
2022/07/11 05:32:30;;;;;;;2.88;1.60;;;16.30;99.90;;;;;;5005070;28;20029;-73
2022/07/11 05:35:00;;;;;;;1.97;1.40;;;16.30;99.90;;;;;;5003447;28;20026;-73
2022/07/11 05:37:26;;;;;;;4.10;1.70;;;16.20;99.90;;;;;;5004696;28;20026;-72
2022/07/11 05:39:51;;;;;;;2.57;1.60;;;16.20;99.90;;;;;;5004717;28;20150;-72
2022/07/11 05:42:17;;;;;;;2.40;1.70;;;16.10;99.90;;;;;;5004886;28;20038;-73
2022/07/11 05:44:43;;;;;;;5.47;1.60;;;16.10;99.90;;;;;;5005262;28;20292;-72
2022/07/11 05:47:09;;;;;;;2.33;1.57;;;16.00;99.90;;;;;;5005004;28;20053;-75
2022/07/11 05:49:35;;;;;;;4.53;2.03;;;16.10;99.90;;;;;;5005287;28;20022;-75
2022/07/11 05:52:01;;;;;;;5.30;2.80;;;16.20;99.90;;;;;;5005341;28;20022;-75
2022/07/11 05:54:28;;;;;;;2.17;1.75;;;16.10;99.90;;;;;;5004628;28;20033;-75
2022/07/11 05:56:54;;;;;;;2.22;1.85;;;16.10;99.90;;;;;;5004093;28;20093;-74
2022/07/11 05:59:21;;;;;;;3.00;1.75;;;16.10;99.90;;;;;;4987796;28;20022;-73
2022/07/11 06:01:47;;;;;;;2.47;1.63;;;16.20;99.90;;;;;;5004895;28;20022;-74
2022/07/11 06:04:13;;;;;;;4.63;1.92;;;16.30;99.90;;;;;;5003197;28;20057;-73
2022/07/11 06:06:39;;;;;;;2.90;1.80;;;16.30;99.90;;;;;;5003913;28;20026;-73
2022/07/11 06:09:05;;;;;;;2.97;1.75;;;16.20;99.90;;;;;;4986908;28;20022;-73
2022/07/11 06:11:31;;;;;;;4.13;1.70;;;16.20;99.90;;;;;;4987150;28;20030;-73
2022/07/11 06:13:57;;;;;;;2.87;1.73;;;16.20;99.90;;;;;;5004225;28;20038;-73
2022/07/11 06:16:23;;;;;;;5.47;1.93;;;16.20;99.90;;;;;;5004345;28;20050;-73
2022/07/11 06:18:48;;;;;;;1.60;1.50;;;16.20;99.90;;;;;;5004279;28;20053;-74
2022/07/11 06:21:14;;;;;;;4.80;1.53;;;16.30;99.90;;;;;;5004151;28;20031;-74
2022/07/11 06:23:42;;;;;;;2.93;1.60;;;16.30;99.90;;;;;;5003724;28;20325;-74
2022/07/11 06:26:08;;;;;;;2.30;1.73;;;16.40;99.90;;;;;;5003111;28;20149;-74
2022/07/11 06:28:33;;;;;;;1.67;1.50;;;16.50;99.90;;;;;;5004146;28;20018;-74
2022/07/11 06:31:00;;;;;;;2.77;1.57;;;16.60;99.90;;;;;;5004152;28;20014;-74
2022/07/11 06:33:25;;;;;;;2.42;1.63;;;16.70;99.90;;;;;;5002780;28;20317;-74
2022/07/11 06:35:51;;;;;;;1.63;1.30;;;16.70;99.90;;;;;;5004083;28;20045;-74
2022/07/11 06:38:17;;;;;;;1.53;1.30;;;16.70;99.90;;;;;;5002438;28;20097;-74
2022/07/11 06:40:43;;;;;;;2.97;1.57;;;16.80;99.90;;;;;;5004081;28;20030;-74
2022/07/11 06:43:09;;;;;;;2.80;1.00;;;16.70;99.90;;;;;;5003645;28;20053;-74
2022/07/11 06:45:36;;;;;;;1.20;1.10;;;16.70;99.90;;;;;;5002737;28;20023;-74
2022/07/11 06:48:01;;;;;;;4.68;1.67;;;16.80;99.90;;;;;;5003534;28;20125;-74
2022/07/11 06:50:27;;;;;;;1.30;1.00;;;16.80;99.90;;;;;;5003666;28;20214;-74
2022/07/11 06:52:53;;;;;;;1.17;1.07;;;16.80;99.90;;;;;;5003247;28;20026;-74
2022/07/11 06:55:19;;;;;;;1.07;0.87;;;16.80;99.90;;;;;;5003438;28;20033;-74
2022/07/11 06:57:44;;;;;;;4.23;1.53;;;16.90;99.90;;;;;;5002338;28;20033;-74
2022/07/11 07:00:11;;;;;;;6.60;3.33;;;16.90;99.80;;;;;;5003557;28;20030;-74
2022/07/11 07:02:38;;;;;;;4.20;1.40;;;16.90;99.70;;;;;;5002050;28;20078;-75
2022/07/11 07:05:06;;;;;;;1.67;1.20;;;16.90;99.60;;;;;;4986324;28;20046;-74
2022/07/11 07:07:31;;;;;;;;;;;17.00;99.90;;;;;;5003873;28;20262;-75
2022/07/11 07:09:57;;;;;;;2.30;1.40;;;17.00;99.80;;;;;;5003136;28;19913;-67
2022/07/11 07:12:23;;;;;;;1.23;0.87;;;17.20;99.90;;;;;;5003376;28;20257;-67
2022/07/11 07:14:49;;;;;;;0.77;0.77;;;17.30;98.70;;;;;;5003089;28;20022;-67
2022/07/11 07:17:15;;;;;;;2.03;0.83;;;17.40;98.60;;;;;;5003566;28;20018;-67
2022/07/11 07:19:40;;;;;;;2.00;0.90;;;17.50;98.50;;;;;;5002780;28;20045;-67
2022/07/11 07:22:08;;;;;;;1.17;0.83;;;17.60;97.70;;;;;;5002957;28;20022;-67
2022/07/11 07:24:35;;;;;;;3.38;1.08;;;17.50;97.20;;;;;;5001411;28;20018;-67
2022/07/11 07:27:03;;;;;;;0.82;0.82;;;17.50;97.50;;;;;;5003014;28;20018;-66
2022/07/11 07:29:28;;;;;;;2.30;1.15;;;17.60;97.70;;;;;;5003066;28;20061;-67
2022/07/11 07:31:54;;;;;;;1.60;0.67;;;17.60;97.60;;;;;;5003166;28;20015;-68
2022/07/11 07:34:21;;;;;;;1.07;0.80;;;17.80;97.50;;;;;;5002639;28;20221;-67
2022/07/11 07:36:47;;;;;;;1.15;0.60;;;17.80;97.50;;;;;;5002894;28;20022;-66
2022/07/11 07:39:13;;;;;;;0.98;0.63;;;18.00;96.90;;;;;;5001612;28;20042;-67
2022/07/11 07:41:38;;;;;;;0.97;0.70;;;18.10;96.80;;;;;;5003045;28;20206;-67
2022/07/11 07:44:04;;;;;;;1.13;0.70;;;18.20;96.80;;;;;;5002592;28;20052;-67
2022/07/11 07:46:30;;;;;;;0.80;0.80;;;18.30;96.70;;;;;;4999751;28;20265;-67
2022/07/11 07:48:56;;;;;;;0.70;0.63;;;18.30;96.60;;;;;;5002641;28;20022;-67
2022/07/11 07:51:22;;;;;;;0.97;0.83;;;18.40;95.80;;;;;;5002792;28;20023;-68
2022/07/11 07:53:48;;;;;;;1.33;0.80;;;18.40;96.30;;;;;;5002392;28;20037;-67
2022/07/11 07:56:14;;;;;;;0.80;0.80;;;18.40;96.50;;;;;;5002838;28;20060;-68
2022/07/11 07:58:40;;;;;;;1.87;0.70;;;18.30;96.30;;;;;;5002385;28;20057;-67
2022/07/11 08:03:51;;;;;;;2.72;0.80;;;18.20;95.80;;;;;;5001667;28;20033;-68
2022/07/11 08:06:17;;;;;;;0.90;0.60;;;18.20;96.20;;;;;;5001450;28;20093;-68
2022/07/11 08:08:43;;;;;;;0.80;0.80;;;18.10;96.80;;;;;;5002433;28;20080;-68
2022/07/11 08:11:09;;;;;;;0.97;0.80;;;18.10;96.70;;;;;;5002688;28;20097;-67
2022/07/11 08:13:36;;;;;;;2.43;1.20;;;18.10;97.10;;;;;;5002344;28;20034;-67
2022/07/11 08:16:03;;;;;;;2.40;0.90;;;18.10;97.40;;;;;;4985796;28;20346;-68
2022/07/11 08:18:29;;;;;;;1.20;1.10;;;18.10;97.20;;;;;;5002567;28;20030;-67
2022/07/11 08:20:56;;;;;;;1.10;1.00;;;18.10;97.40;;;;;;5002485;28;20045;-67
2022/07/11 08:23:21;;;;;;;0.80;0.80;;;18.00;97.60;;;;;;5001847;28;20321;-67
2022/07/11 08:25:47;;;;;;;1.97;1.03;;;18.00;97.60;;;;;;5002383;28;20045;-67
2022/07/11 08:28:13;;;;;;;2.93;1.10;;;18.10;97.70;;;;;;5002464;28;20048;-67
2022/07/11 08:30:39;;;;;;;5.40;1.67;;;18.10;97.70;;;;;;5002268;28;20329;-67
2022/07/11 08:33:04;;;;;;;2.20;1.10;;;18.10;98.00;;;;;;5005030;28;20030;-67
2022/07/11 08:35:30;;;;;;;1.90;0.90;;;18.10;98.90;;;;;;5006168;28;20269;-68
2022/07/11 08:37:56;;;;;;;3.50;1.10;;;18.10;99.40;;;;;;5006178;28;20333;-68
2022/07/11 08:40:22;;;;;;;1.20;1.10;;;18.10;99.20;;;;;;5005772;28;20038;-68
2022/07/11 08:42:47;;;;;;;2.07;1.30;;;18.10;99.90;;;;;;5005731;28;20038;-68
2022/07/11 08:45:14;;;;;;;1.70;1.50;;;18.10;99.90;;;;;;5006084;28;20033;-67
2022/07/11 08:47:40;;;;;;;0.80;0.80;;;18.10;99.90;;;;;;5005687;28;20052;-67
2022/07/11 08:50:08;;;;;;;1.80;1.50;;;18.10;99.90;;;;;;5005992;28;20029;-67
2022/07/11 08:52:33;;;;;;;2.17;1.15;;;18.00;99.90;;;;;;5004917;28;20034;-68
2022/07/11 08:54:59;;;;;;;2.67;1.00;;;18.00;99.90;;;;;;5005639;28;20325;-68
2022/07/11 08:57:25;;;;;;;1.37;1.10;;;17.90;99.90;;;;;;5005009;28;20282;-68
2022/07/11 08:59:57;;;;;;;2.20;1.13;;;17.90;99.90;;;;;;5005934;28;20018;-68
2022/07/11 09:02:26;;;;;;;1.30;1.20;;;17.90;99.90;;;;;;5004698;28;20018;-68
2022/07/11 09:04:51;;;;;;;2.28;1.10;;;17.90;99.90;;;;;;4988409;28;20029;-68
2022/07/11 09:07:17;;;;;;;1.70;1.50;;;18.00;99.90;;;;;;5005729;28;20241;-69
2022/07/11 09:09:44;;;;;;;3.00;1.50;;;18.00;99.90;;;;;;5005653;28;20246;-68
2022/07/11 09:12:16;;;;;;;2.83;1.95;;;18.00;99.90;;;;;;5005830;28;20022;-68
2022/07/11 09:14:48;;;;;;;2.60;1.63;;;18.00;99.90;;;;;;5005403;28;20030;-67
2022/07/11 09:17:14;;;;;;;1.20;1.05;;;18.00;99.90;;;;;;5005428;28;20086;-70
2022/07/11 09:19:40;;;;;;;1.40;0.80;;;17.80;99.90;;;;;;5004319;28;20029;-73
2022/07/11 09:25:24;;;;;;;1.15;0.50;;;17.80;99.90;;;;;;5004136;28;20073;-72
2022/07/11 09:27:55;;;;;;;0.60;0.60;;;17.80;99.90;;;;;;5004884;28;20030;-72
2022/07/11 09:30:39;;;;;;;0.50;0.50;;;18.00;99.90;;;;;;4988802;28;20216;-72
2022/07/11 09:33:06;;;;;;;1.23;0.47;;;17.90;99.90;;;;;;5005133;28;20026;-72
2022/07/11 09:35:37;;;;;;;1.88;0.73;;;17.80;99.90;;;;;;4988310;28;20034;-71
2022/07/11 09:38:08;;;;;;;0.60;0.50;;;17.90;99.90;;;;;;5005132;28;20097;-71
2022/07/11 09:40:35;;;;;;;1.13;0.40;;;17.80;99.90;;;;;;5003870;28;20026;-71
2022/07/11 09:43:01;;;;;;;0.45;0.40;;;18.00;99.90;;;;;;5004336;28;20332;-72
2022/07/11 09:45:29;;;;;;;0.53;0.43;;;18.20;99.90;;;;;;5003967;28;20037;-72
2022/07/11 09:48:00;;;;;;;0.70;0.60;;;18.40;99.90;;;;;;5004044;28;20018;-71
2022/07/11 09:50:29;;;;;;;0.80;0.50;;;18.50;99.90;;;;;;5005020;28;20129;-72
2022/07/11 09:53:08;;;;;;;0.82;0.60;;;18.60;99.90;;;;;;5003751;28;20037;-71
2022/07/11 09:55:38;;;;;;;1.20;0.60;;;18.60;99.90;;;;;;5004405;28;20389;-71
2022/07/11 09:58:05;;;;;;;0.75;0.40;;;18.50;99.90;;;;;;5001846;28;20050;-71
2022/07/11 10:00:32;;;;;;;0.98;0.40;;;18.50;99.90;;;;;;5019730;28;20030;-72
2022/07/11 10:02:59;;;;;;;1.95;0.50;;;18.40;99.90;;;;;;5003131;28;20314;-71
2022/07/11 10:05:25;;;;;;;1.58;0.57;;;18.20;99.90;;;;;;5019623;28;20025;-70
2022/07/11 10:07:51;;;;;;;0.60;0.50;;;18.10;99.90;;;;;;5004601;28;20085;-72
2022/07/11 10:10:17;;;;;;;1.03;0.70;;;17.90;99.90;;;;;;5004590;28;20356;-71
2022/07/11 10:12:46;;;;;;;0.60;0.30;;;17.70;99.90;;;;;;5003429;28;20030;-71
2022/07/11 10:15:14;;;;;;;2.55;0.65;;;17.70;99.90;;;;;;4969587;28;20024;-71
2022/07/11 10:18:11;;;;;;;0.70;0.60;;;17.70;99.90;;;;;;4994274;28;20033;-71
2022/07/11 10:20:51;;;;;;;3.22;1.10;;;17.60;99.90;;;;;;4984074;28;20086;-72
2022/07/11 10:23:45;;;;;;;2.63;0.95;;;17.60;99.90;;;;;;4984492;28;20023;-74
2022/07/11 10:26:32;;;;;;;2.05;1.20;;;17.70;99.90;;;;;;4989820;28;20018;-72
2022/07/11 10:29:09;;;;;;;1.67;1.27;;;17.70;99.90;;;;;;5003141;28;20049;-72
2022/07/11 10:31:35;;;;;;;;;;;17.80;99.90;;;;;;5003467;28;20034;-70
2022/07/11 10:34:21;;;;;;;1.38;1.05;;;17.90;99.90;;;;;;5004012;28;20271;-72
2022/07/11 10:36:47;;;;;;;1.48;1.05;;;18.00;99.90;;;;;;5003035;28;20098;-73
2022/07/11 10:39:27;;;;;;;1.33;1.10;;;18.00;99.90;;;;;;5002595;28;20034;-71
2022/07/11 10:42:03;;;;;;;3.92;1.38;;;18.10;99.90;;;;;;4971831;28;20341;-71
2022/07/11 10:44:47;;;;;;;1.60;1.20;;;18.10;99.90;;;;;;5002685;28;20053;-71
2022/07/11 10:47:33;;;;;;;2.72;1.00;;;18.10;99.90;;;;;;5002564;28;20022;-71
2022/07/11 10:49:58;;;;;;;0.80;0.80;;;18.20;99.90;;;;;;5003861;28;20321;-71
2022/07/11 10:52:24;;;;;;;1.10;0.90;;;18.10;99.90;;;;;;4986525;28;20038;-71
2022/07/11 10:55:08;;;;;;;0.90;0.63;;;18.20;99.90;;;;;;4985364;28;20046;-71
2022/07/11 10:58:00;;;;;;;0.47;0.47;;;18.10;99.90;;;;;;4972279;28;20029;-71
2022/07/11 11:00:26;;;;;;;0.50;0.50;;;17.90;99.90;;;;;;4999769;28;20042;-71
2022/07/11 11:03:08;;;;;;;0.50;0.50;;;17.90;99.90;;;;;;5002445;28;20225;-71
2022/07/11 11:05:54;;;;;;;0.60;0.50;;;18.10;99.90;;;;;;5003506;28;20049;-71
2022/07/11 11:08:32;;;;;;;0.60;0.50;;;18.10;99.90;;;;;;5002957;28;20045;-71
2022/07/11 11:10:59;;;;;;;0.43;0.40;;;18.20;99.90;;;;;;5003364;28;20241;-71
2022/07/11 11:13:26;;;;;;;1.55;0.88;;;18.30;99.90;;;;;;5002183;28;20305;-71
2022/07/11 11:15:56;;;;;;;0.70;0.60;;;18.40;99.90;;;;;;4970295;28;20433;-71
2022/07/11 11:18:24;;;;;;;0.93;0.50;;;18.40;99.90;;;;;;5003377;28;20045;-71
2022/07/11 11:21:02;;;;;;;0.55;0.55;;;18.40;99.90;;;;;;5002091;28;20026;-71
2022/07/11 11:23:31;;;;;;;0.47;0.47;;;18.40;99.90;;;;;;5003111;28;20034;-71
2022/07/11 11:26:17;;;;;;;0.45;0.40;;;18.30;99.90;;;;;;5003015;28;20075;-70
2022/07/11 11:29:03;;;;;;;0.75;0.40;;;18.40;99.90;;;;;;5003157;28;20273;-70
2022/07/11 11:31:30;;;;;;;1.23;0.50;;;18.30;99.90;;;;;;5002292;28;20101;-71
2022/07/11 11:34:00;;;;;;;0.30;0.30;;;18.30;99.90;;;;;;5001761;28;20030;-71
2022/07/11 11:36:27;;;;;;;0.88;0.43;;;18.20;99.90;;;;;;4986533;28;20296;-71
2022/07/11 11:38:53;;;;;;;0.30;0.30;;;18.30;99.90;;;;;;5004714;28;20057;-71
2022/07/11 11:41:26;;;;;;;0.40;0.40;;;18.30;99.90;;;;;;5005665;28;20205;-71
2022/07/11 11:43:59;;;;;;;0.80;0.50;;;18.40;99.90;;;;;;5005134;28;20033;-70
2022/07/11 11:46:25;;;;;;;0.68;0.50;;;18.40;99.90;;;;;;5004169;28;20367;-71
2022/07/11 11:48:55;;;;;;;0.88;0.70;;;18.40;99.90;;;;;;5004139;28;20019;-71
2022/07/11 11:51:21;;;;;;;0.55;0.55;;;18.50;99.90;;;;;;5002056;28;20026;-71
2022/07/11 11:53:51;;;;;;;0.40;0.40;;;18.60;99.80;;;;;;5001277;28;20273;-71
2022/07/11 11:56:30;;;;;;;0.32;0.32;;;18.60;99.20;;;;;;5002935;28;20034;-71
2022/07/11 11:59:13;;;;;;;0.30;0.30;;;18.60;99.50;;;;;;5001641;28;20022;-71
2022/07/11 12:01:41;;;;;;;1.02;0.50;;;18.60;99.70;;;;;;5002700;28;20218;-71
2022/07/11 12:04:09;;;;;;;0.50;0.50;;;18.70;99.90;;;;;;5002125;28;20034;-71
2022/07/11 12:06:43;;;;;;;0.28;0.25;;;18.90;99.90;;;;;;5006259;28;20257;-70
2022/07/11 12:09:46;;;;;;;0.40;0.40;;;19.10;99.90;;;;;;5008750;28;20026;-71
2022/07/11 12:14:55;;;;;;;1.17;0.60;;;19.70;99.40;;;;;;5007800;28;20072;-71
2022/07/11 12:17:29;;;;;;;0.50;0.50;;;20.00;96.70;;;;;;5008925;28;20030;-70
2022/07/11 12:19:55;;;;;;;0.57;0.57;;;20.10;95.10;;;;;;5008025;28;20228;-70
2022/07/11 12:22:21;;;;;;;0.85;0.60;;;20.40;95.50;;;;;;5008892;28;20022;-71
2022/07/11 12:24:48;;;;;;;1.93;0.50;;;20.70;94.70;;;;;;5008369;28;20246;-71
2022/07/11 12:27:25;;;;;;;0.55;0.55;;;21.10;92.20;;;;;;5006920;28;20037;-71
2022/07/11 12:29:51;;;;;;;0.70;0.40;;;21.40;92.00;;;;;;5007764;28;20014;-71
2022/07/11 12:32:18;;;;;;;0.30;0.30;;;21.80;91.80;;;;;;5007993;28;20303;-71
2022/07/11 12:34:46;;;;;;;1.20;1.00;;;22.00;91.80;;;;;;5008271;28;20026;-71
2022/07/11 12:37:20;;;;;;;0.50;0.50;;;22.20;91.60;;;;;;5007499;28;20029;-71
2022/07/11 12:39:51;;;;;;;0.43;0.35;;;22.60;88.20;;;;;;4991315;28;20018;-71
2022/07/11 12:42:35;;;;;;;0.47;0.47;;;22.60;86.10;;;;;;5007588;28;20030;-71
2022/07/11 12:45:09;;;;;;;0.45;0.45;;;22.70;86.70;;;;;;5007785;28;20022;-71
2022/07/11 12:47:39;;;;;;;0.70;0.70;;;23.00;86.80;;;;;;5007512;28;20052;-71
2022/07/11 12:50:19;;;;;;;1.38;0.77;;;23.20;83.70;;;;;;5007651;28;20033;-71
2022/07/11 12:52:49;;;;;;;0.70;0.65;;;23.10;84.30;;;;;;5007429;28;20029;-71
2022/07/11 12:55:28;;;;;;;0.75;0.52;;;22.90;82.40;;;;;;4991642;28;20033;-71
2022/07/11 12:58:14;;;;;;;1.73;0.50;;;22.70;84.70;;;;;;5007554;28;20083;-71
2022/07/11 13:00:57;;;;;;;4.45;0.70;;;22.60;87.00;;;;;;5007804;28;20022;-70
2022/07/11 13:03:38;;;;;;;0.68;0.40;;;22.40;87.30;;;;;;4992823;28;20034;-71